Aviation Digital Data Service (ADDS)

Output produced by METARs form (0639 UTC 27 March 2017)
found at http://www.aviationweather.gov/adds/metars/
 
TAF MZBZ 270300Z 2706/2806 11007KT 9999 SCT022
       
TAF MZBZ 270300Z 2706/2806 11007KT 9999 SCT022